sensor_id;sensor_type;location;lat;lon;timestamp;P1;durP1;ratioP1;P2;durP2;ratioP2
76290;SDS011;65100;46.884;17.410;2024-01-30T00:01:44;23.80;;;10.53;;
76290;SDS011;65100;46.884;17.410;2024-01-30T00:04:10;21.23;;;8.63;;
76290;SDS011;65100;46.884;17.410;2024-01-30T00:06:35;26.70;;;10.13;;
76290;SDS011;65100;46.884;17.410;2024-01-30T00:09:00;23.30;;;10.13;;
76290;SDS011;65100;46.884;17.410;2024-01-30T00:11:26;22.43;;;9.90;;
76290;SDS011;65100;46.884;17.410;2024-01-30T00:13:52;24.17;;;10.13;;
76290;SDS011;65100;46.884;17.410;2024-01-30T00:16:20;22.57;;;9.80;;
76290;SDS011;65100;46.884;17.410;2024-01-30T00:18:49;21.98;;;8.95;;
76290;SDS011;65100;46.884;17.410;2024-01-30T00:21:19;23.20;;;8.88;;
76290;SDS011;65100;46.884;17.410;2024-01-30T00:23:45;23.83;;;8.87;;
76290;SDS011;65100;46.884;17.410;2024-01-30T00:26:10;19.75;;;8.50;;
76290;SDS011;65100;46.884;17.410;2024-01-30T00:28:36;23.80;;;10.60;;
76290;SDS011;65100;46.884;17.410;2024-01-30T00:31:05;20.87;;;8.80;;
76290;SDS011;65100;46.884;17.410;2024-01-30T00:33:30;24.13;;;10.02;;
76290;SDS011;65100;46.884;17.410;2024-01-30T00:35:56;22.00;;;9.90;;
76290;SDS011;65100;46.884;17.410;2024-01-30T00:38:21;20.77;;;8.83;;
76290;SDS011;65100;46.884;17.410;2024-01-30T00:40:47;23.17;;;10.02;;
76290;SDS011;65100;46.884;17.410;2024-01-30T00:43:13;22.60;;;9.15;;
76290;SDS011;65100;46.884;17.410;2024-01-30T00:45:38;26.50;;;10.50;;
76290;SDS011;65100;46.884;17.410;2024-01-30T00:48:04;21.70;;;9.43;;
76290;SDS011;65100;46.884;17.410;2024-01-30T00:50:29;21.25;;;9.35;;
76290;SDS011;65100;46.884;17.410;2024-01-30T00:52:55;22.57;;;9.20;;
76290;SDS011;65100;46.884;17.410;2024-01-30T00:55:20;25.30;;;9.33;;
76290;SDS011;65100;46.884;17.410;2024-01-30T00:57:46;25.38;;;10.38;;
76290;SDS011;65100;46.884;17.410;2024-01-30T01:00:12;25.10;;;9.83;;
76290;SDS011;65100;46.884;17.410;2024-01-30T01:02:38;28.02;;;11.65;;
76290;SDS011;65100;46.884;17.410;2024-01-30T01:05:06;22.60;;;10.10;;
76290;SDS011;65100;46.884;17.410;2024-01-30T01:07:31;22.50;;;9.80;;
76290;SDS011;65100;46.884;17.410;2024-01-30T01:09:57;27.85;;;10.18;;
76290;SDS011;65100;46.884;17.410;2024-01-30T01:12:22;23.60;;;9.10;;
76290;SDS011;65100;46.884;17.410;2024-01-30T01:14:48;27.33;;;11.73;;
76290;SDS011;65100;46.884;17.410;2024-01-30T01:17:13;27.27;;;9.80;;
76290;SDS011;65100;46.884;17.410;2024-01-30T01:19:39;23.45;;;10.82;;
76290;SDS011;65100;46.884;17.410;2024-01-30T01:22:04;22.27;;;9.83;;
76290;SDS011;65100;46.884;17.410;2024-01-30T01:24:33;28.17;;;10.25;;
76290;SDS011;65100;46.884;17.410;2024-01-30T01:26:59;24.27;;;10.30;;
76290;SDS011;65100;46.884;17.410;2024-01-30T01:29:24;28.73;;;10.88;;
76290;SDS011;65100;46.884;17.410;2024-01-30T01:31:56;24.40;;;10.80;;
76290;SDS011;65100;46.884;17.410;2024-01-30T01:34:42;26.60;;;11.17;;
76290;SDS011;65100;46.884;17.410;2024-01-30T01:37:08;28.38;;;10.60;;
76290;SDS011;65100;46.884;17.410;2024-01-30T01:39:33;23.13;;;9.70;;
76290;SDS011;65100;46.884;17.410;2024-01-30T01:41:59;24.17;;;9.67;;
76290;SDS011;65100;46.884;17.410;2024-01-30T01:44:24;23.10;;;9.23;;
76290;SDS011;65100;46.884;17.410;2024-01-30T01:46:50;24.75;;;9.95;;
76290;SDS011;65100;46.884;17.410;2024-01-30T01:49:16;22.27;;;9.55;;
76290;SDS011;65100;46.884;17.410;2024-01-30T01:51:44;25.40;;;9.33;;
76290;SDS011;65100;46.884;17.410;2024-01-30T01:54:11;25.10;;;9.50;;
76290;SDS011;65100;46.884;17.410;2024-01-30T01:56:37;22.40;;;9.73;;
76290;SDS011;65100;46.884;17.410;2024-01-30T01:59:07;23.95;;;9.43;;
76290;SDS011;65100;46.884;17.410;2024-01-30T02:01:33;22.15;;;9.70;;
76290;SDS011;65100;46.884;17.410;2024-01-30T02:04:01;23.53;;;9.10;;
76290;SDS011;65100;46.884;17.410;2024-01-30T02:06:26;21.70;;;9.15;;
76290;SDS011;65100;46.884;17.410;2024-01-30T02:08:52;24.95;;;9.27;;
76290;SDS011;65100;46.884;17.410;2024-01-30T02:11:19;24.13;;;9.97;;
76290;SDS011;65100;46.884;17.410;2024-01-30T02:13:45;26.00;;;10.05;;
76290;SDS011;65100;46.884;17.410;2024-01-30T02:16:10;25.73;;;9.73;;
76290;SDS011;65100;46.884;17.410;2024-01-30T02:18:36;25.55;;;9.32;;
76290;SDS011;65100;46.884;17.410;2024-01-30T02:21:07;22.05;;;10.20;;
76290;SDS011;65100;46.884;17.410;2024-01-30T02:23:33;23.40;;;10.17;;
76290;SDS011;65100;46.884;17.410;2024-01-30T02:25:59;23.27;;;10.45;;
76290;SDS011;65100;46.884;17.410;2024-01-30T02:28:25;26.85;;;10.90;;
76290;SDS011;65100;46.884;17.410;2024-01-30T02:30:51;23.63;;;10.50;;
76290;SDS011;65100;46.884;17.410;2024-01-30T02:33:16;22.37;;;9.23;;
76290;SDS011;65100;46.884;17.410;2024-01-30T02:35:42;22.50;;;9.17;;
76290;SDS011;65100;46.884;17.410;2024-01-30T02:38:07;25.08;;;9.50;;
76290;SDS011;65100;46.884;17.410;2024-01-30T02:40:33;24.73;;;10.23;;
76290;SDS011;65100;46.884;17.410;2024-01-30T02:42:59;20.67;;;9.40;;
76290;SDS011;65100;46.884;17.410;2024-01-30T02:45:25;22.80;;;9.90;;
76290;SDS011;65100;46.884;17.410;2024-01-30T02:47:51;19.67;;;8.93;;
76290;SDS011;65100;46.884;17.410;2024-01-30T02:50:16;20.58;;;8.40;;
76290;SDS011;65100;46.884;17.410;2024-01-30T02:52:42;21.52;;;8.80;;
76290;SDS011;65100;46.884;17.410;2024-01-30T02:55:09;21.35;;;8.85;;
76290;SDS011;65100;46.884;17.410;2024-01-30T02:57:34;22.10;;;9.33;;
76290;SDS011;65100;46.884;17.410;2024-01-30T03:00:00;20.92;;;9.43;;
76290;SDS011;65100;46.884;17.410;2024-01-30T03:02:26;22.63;;;9.60;;
76290;SDS011;65100;46.884;17.410;2024-01-30T03:04:51;21.80;;;9.03;;
76290;SDS011;65100;46.884;17.410;2024-01-30T03:07:17;26.17;;;8.68;;
76290;SDS011;65100;46.884;17.410;2024-01-30T03:09:42;23.87;;;9.43;;
76290;SDS011;65100;46.884;17.410;2024-01-30T03:12:09;25.25;;;9.35;;
76290;SDS011;65100;46.884;17.410;2024-01-30T03:14:34;24.33;;;10.10;;
76290;SDS011;65100;46.884;17.410;2024-01-30T03:17:00;22.63;;;8.30;;
76290;SDS011;65100;46.884;17.410;2024-01-30T03:19:25;21.17;;;9.27;;
76290;SDS011;65100;46.884;17.410;2024-01-30T03:21:51;21.47;;;9.00;;
76290;SDS011;65100;46.884;17.410;2024-01-30T03:24:16;22.35;;;9.63;;
76290;SDS011;65100;46.884;17.410;2024-01-30T03:26:42;21.63;;;9.37;;
76290;SDS011;65100;46.884;17.410;2024-01-30T03:29:08;22.88;;;9.32;;
76290;SDS011;65100;46.884;17.410;2024-01-30T03:31:33;20.90;;;9.27;;
76290;SDS011;65100;46.884;17.410;2024-01-30T03:33:59;25.45;;;10.27;;
76290;SDS011;65100;46.884;17.410;2024-01-30T03:36:25;23.38;;;9.13;;
76290;SDS011;65100;46.884;17.410;2024-01-30T03:38:51;24.10;;;8.93;;
76290;SDS011;65100;46.884;17.410;2024-01-30T03:41:16;23.27;;;10.03;;
76290;SDS011;65100;46.884;17.410;2024-01-30T03:43:42;23.47;;;10.10;;
76290;SDS011;65100;46.884;17.410;2024-01-30T03:46:07;22.48;;;8.15;;
76290;SDS011;65100;46.884;17.410;2024-01-30T03:48:33;23.37;;;9.50;;
76290;SDS011;65100;46.884;17.410;2024-01-30T03:50:58;20.67;;;8.38;;
76290;SDS011;65100;46.884;17.410;2024-01-30T03:53:24;26.97;;;8.67;;
76290;SDS011;65100;46.884;17.410;2024-01-30T03:55:49;21.93;;;9.80;;
76290;SDS011;65100;46.884;17.410;2024-01-30T03:58:15;25.08;;;9.85;;
76290;SDS011;65100;46.884;17.410;2024-01-30T04:00:40;28.17;;;9.57;;
76290;SDS011;65100;46.884;17.410;2024-01-30T04:03:06;24.47;;;9.40;;
76290;SDS011;65100;46.884;17.410;2024-01-30T04:05:31;20.17;;;8.80;;
76290;SDS011;65100;46.884;17.410;2024-01-30T04:07:57;23.07;;;8.93;;
76290;SDS011;65100;46.884;17.410;2024-01-30T04:10:23;24.13;;;9.80;;
76290;SDS011;65100;46.884;17.410;2024-01-30T04:12:49;25.05;;;10.93;;
76290;SDS011;65100;46.884;17.410;2024-01-30T04:15:15;25.67;;;9.60;;
76290;SDS011;65100;46.884;17.410;2024-01-30T04:17:41;24.70;;;10.07;;
76290;SDS011;65100;46.884;17.410;2024-01-30T04:20:07;20.97;;;9.60;;
76290;SDS011;65100;46.884;17.410;2024-01-30T04:22:33;23.37;;;8.83;;
76290;SDS011;65100;46.884;17.410;2024-01-30T04:24:58;23.27;;;9.30;;
76290;SDS011;65100;46.884;17.410;2024-01-30T04:27:23;22.20;;;8.37;;
76290;SDS011;65100;46.884;17.410;2024-01-30T04:29:49;21.70;;;9.00;;
76290;SDS011;65100;46.884;17.410;2024-01-30T04:32:14;24.63;;;8.87;;
76290;SDS011;65100;46.884;17.410;2024-01-30T04:34:40;23.60;;;8.63;;
76290;SDS011;65100;46.884;17.410;2024-01-30T04:37:05;20.07;;;7.97;;
76290;SDS011;65100;46.884;17.410;2024-01-30T04:39:32;20.53;;;8.63;;
76290;SDS011;65100;46.884;17.410;2024-01-30T04:41:58;22.98;;;8.10;;
76290;SDS011;65100;46.884;17.410;2024-01-30T04:44:24;21.55;;;9.93;;
76290;SDS011;65100;46.884;17.410;2024-01-30T04:46:49;22.97;;;9.77;;
76290;SDS011;65100;46.884;17.410;2024-01-30T04:49:15;26.50;;;10.27;;
76290;SDS011;65100;46.884;17.410;2024-01-30T04:51:40;22.63;;;9.17;;
76290;SDS011;65100;46.884;17.410;2024-01-30T04:54:05;24.15;;;8.82;;
76290;SDS011;65100;46.884;17.410;2024-01-30T04:56:31;19.57;;;7.33;;
76290;SDS011;65100;46.884;17.410;2024-01-30T04:58:56;21.33;;;8.90;;
76290;SDS011;65100;46.884;17.410;2024-01-30T05:01:22;24.03;;;9.17;;
76290;SDS011;65100;46.884;17.410;2024-01-30T05:03:47;22.45;;;9.18;;
76290;SDS011;65100;46.884;17.410;2024-01-30T05:06:12;20.07;;;7.67;;
76290;SDS011;65100;46.884;17.410;2024-01-30T05:08:38;21.13;;;8.20;;
76290;SDS011;65100;46.884;17.410;2024-01-30T05:11:05;22.13;;;8.87;;
76290;SDS011;65100;46.884;17.410;2024-01-30T05:13:30;21.25;;;8.57;;
76290;SDS011;65100;46.884;17.410;2024-01-30T05:15:56;20.48;;;8.75;;
76290;SDS011;65100;46.884;17.410;2024-01-30T05:18:22;22.97;;;9.23;;
76290;SDS011;65100;46.884;17.410;2024-01-30T05:20:48;19.95;;;8.68;;
76290;SDS011;65100;46.884;17.410;2024-01-30T05:23:15;18.98;;;8.55;;
76290;SDS011;65100;46.884;17.410;2024-01-30T05:25:40;18.20;;;8.20;;
76290;SDS011;65100;46.884;17.410;2024-01-30T05:28:06;22.37;;;8.93;;
76290;SDS011;65100;46.884;17.410;2024-01-30T05:30:31;20.60;;;9.13;;
76290;SDS011;65100;46.884;17.410;2024-01-30T05:32:56;21.13;;;8.67;;
76290;SDS011;65100;46.884;17.410;2024-01-30T05:35:22;20.43;;;8.90;;
76290;SDS011;65100;46.884;17.410;2024-01-30T05:37:50;19.47;;;8.20;;
76290;SDS011;65100;46.884;17.410;2024-01-30T05:40:16;25.05;;;8.55;;
76290;SDS011;65100;46.884;17.410;2024-01-30T05:42:41;22.13;;;8.77;;
76290;SDS011;65100;46.884;17.410;2024-01-30T05:45:07;22.63;;;8.93;;
76290;SDS011;65100;46.884;17.410;2024-01-30T05:47:33;20.50;;;8.73;;
76290;SDS011;65100;46.884;17.410;2024-01-30T05:49:59;24.33;;;8.25;;
76290;SDS011;65100;46.884;17.410;2024-01-30T05:52:25;19.53;;;8.70;;
76290;SDS011;65100;46.884;17.410;2024-01-30T05:54:50;26.07;;;10.30;;
76290;SDS011;65100;46.884;17.410;2024-01-30T05:57:16;21.10;;;8.55;;
76290;SDS011;65100;46.884;17.410;2024-01-30T05:59:42;34.13;;;13.60;;
76290;SDS011;65100;46.884;17.410;2024-01-30T06:02:10;36.72;;;14.48;;
76290;SDS011;65100;46.884;17.410;2024-01-30T06:04:35;23.30;;;9.52;;
76290;SDS011;65100;46.884;17.410;2024-01-30T06:07:01;21.03;;;8.43;;
76290;SDS011;65100;46.884;17.410;2024-01-30T06:09:27;19.88;;;7.88;;
76290;SDS011;65100;46.884;17.410;2024-01-30T06:11:53;20.67;;;8.43;;
76290;SDS011;65100;46.884;17.410;2024-01-30T06:14:19;25.97;;;9.83;;
76290;SDS011;65100;46.884;17.410;2024-01-30T06:16:44;19.23;;;8.20;;
76290;SDS011;65100;46.884;17.410;2024-01-30T06:19:09;22.93;;;8.63;;
76290;SDS011;65100;46.884;17.410;2024-01-30T06:21:35;25.40;;;9.67;;
76290;SDS011;65100;46.884;17.410;2024-01-30T06:24:02;20.63;;;8.27;;
76290;SDS011;65100;46.884;17.410;2024-01-30T06:26:27;22.17;;;8.63;;
76290;SDS011;65100;46.884;17.410;2024-01-30T06:28:53;21.80;;;8.10;;
76290;SDS011;65100;46.884;17.410;2024-01-30T06:31:18;23.17;;;9.60;;
76290;SDS011;65100;46.884;17.410;2024-01-30T06:33:46;23.13;;;9.00;;
76290;SDS011;65100;46.884;17.410;2024-01-30T06:36:14;24.15;;;9.73;;
76290;SDS011;65100;46.884;17.410;2024-01-30T06:38:40;20.50;;;8.33;;
76290;SDS011;65100;46.884;17.410;2024-01-30T06:41:06;23.25;;;8.75;;
76290;SDS011;65100;46.884;17.410;2024-01-30T06:43:31;23.40;;;9.73;;
76290;SDS011;65100;46.884;17.410;2024-01-30T06:45:57;20.70;;;9.90;;
76290;SDS011;65100;46.884;17.410;2024-01-30T06:48:22;24.40;;;8.30;;
76290;SDS011;65100;46.884;17.410;2024-01-30T06:50:48;23.97;;;10.03;;
76290;SDS011;65100;46.884;17.410;2024-01-30T06:53:14;22.15;;;8.43;;
76290;SDS011;65100;46.884;17.410;2024-01-30T06:55:42;21.63;;;8.83;;
76290;SDS011;65100;46.884;17.410;2024-01-30T06:58:08;23.13;;;9.93;;
76290;SDS011;65100;46.884;17.410;2024-01-30T07:00:34;24.50;;;9.90;;
76290;SDS011;65100;46.884;17.410;2024-01-30T07:02:59;23.77;;;9.15;;
76290;SDS011;65100;46.884;17.410;2024-01-30T07:05:25;24.97;;;9.23;;
76290;SDS011;65100;46.884;17.410;2024-01-30T07:07:50;21.57;;;9.40;;
76290;SDS011;65100;46.884;17.410;2024-01-30T07:10:15;23.47;;;9.33;;
76290;SDS011;65100;46.884;17.410;2024-01-30T07:12:41;23.40;;;8.90;;
76290;SDS011;65100;46.884;17.410;2024-01-30T07:15:06;21.20;;;8.37;;
76290;SDS011;65100;46.884;17.410;2024-01-30T07:17:35;25.17;;;9.95;;
76290;SDS011;65100;46.884;17.410;2024-01-30T07:20:01;23.17;;;10.63;;
76290;SDS011;65100;46.884;17.410;2024-01-30T07:22:30;24.52;;;11.05;;
76290;SDS011;65100;46.884;17.410;2024-01-30T07:24:56;25.70;;;10.27;;
76290;SDS011;65100;46.884;17.410;2024-01-30T07:27:21;25.50;;;11.03;;
76290;SDS011;65100;46.884;17.410;2024-01-30T07:29:47;26.95;;;11.20;;
76290;SDS011;65100;46.884;17.410;2024-01-30T07:32:12;24.83;;;11.77;;
76290;SDS011;65100;46.884;17.410;2024-01-30T07:34:38;27.87;;;11.73;;
76290;SDS011;65100;46.884;17.410;2024-01-30T07:37:03;27.63;;;11.13;;
76290;SDS011;65100;46.884;17.410;2024-01-30T07:39:28;27.90;;;11.53;;
76290;SDS011;65100;46.884;17.410;2024-01-30T07:41:56;30.08;;;11.88;;
76290;SDS011;65100;46.884;17.410;2024-01-30T07:44:22;31.73;;;13.00;;
76290;SDS011;65100;46.884;17.410;2024-01-30T07:46:47;30.45;;;12.48;;
76290;SDS011;65100;46.884;17.410;2024-01-30T07:49:12;31.50;;;13.67;;
76290;SDS011;65100;46.884;17.410;2024-01-30T07:51:39;31.75;;;13.65;;
76290;SDS011;65100;46.884;17.410;2024-01-30T07:54:08;32.13;;;14.15;;
76290;SDS011;65100;46.884;17.410;2024-01-30T07:56:33;35.30;;;15.33;;
76290;SDS011;65100;46.884;17.410;2024-01-30T07:58:59;38.67;;;16.87;;
76290;SDS011;65100;46.884;17.410;2024-01-30T08:01:24;37.92;;;16.20;;
76290;SDS011;65100;46.884;17.410;2024-01-30T08:03:50;42.37;;;18.43;;
76290;SDS011;65100;46.884;17.410;2024-01-30T08:06:18;39.17;;;16.97;;
76290;SDS011;65100;46.884;17.410;2024-01-30T08:08:44;42.20;;;18.33;;
76290;SDS011;65100;46.884;17.410;2024-01-30T08:11:11;43.08;;;17.70;;
76290;SDS011;65100;46.884;17.410;2024-01-30T08:13:37;37.23;;;16.90;;
76290;SDS011;65100;46.884;17.410;2024-01-30T08:16:02;32.30;;;14.45;;
76290;SDS011;65100;46.884;17.410;2024-01-30T08:18:29;29.77;;;12.80;;
76290;SDS011;65100;46.884;17.410;2024-01-30T08:20:54;31.97;;;13.80;;
76290;SDS011;65100;46.884;17.410;2024-01-30T08:23:20;30.90;;;13.33;;
76290;SDS011;65100;46.884;17.410;2024-01-30T08:25:45;30.95;;;13.13;;
76290;SDS011;65100;46.884;17.410;2024-01-30T08:28:11;31.03;;;13.23;;
76290;SDS011;65100;46.884;17.410;2024-01-30T08:30:36;31.83;;;13.63;;
76290;SDS011;65100;46.884;17.410;2024-01-30T08:33:04;29.85;;;12.88;;
76290;SDS011;65100;46.884;17.410;2024-01-30T08:35:29;33.23;;;15.17;;
76290;SDS011;65100;46.884;17.410;2024-01-30T08:37:58;36.53;;;14.75;;
76290;SDS011;65100;46.884;17.410;2024-01-30T08:40:23;33.13;;;14.80;;
76290;SDS011;65100;46.884;17.410;2024-01-30T08:42:49;37.35;;;15.77;;
76290;SDS011;65100;46.884;17.410;2024-01-30T08:45:14;32.70;;;14.03;;
76290;SDS011;65100;46.884;17.410;2024-01-30T08:47:40;32.20;;;13.23;;
76290;SDS011;65100;46.884;17.410;2024-01-30T08:50:06;35.10;;;14.88;;
76290;SDS011;65100;46.884;17.410;2024-01-30T08:52:32;32.90;;;14.23;;
76290;SDS011;65100;46.884;17.410;2024-01-30T08:54:59;36.30;;;15.10;;
76290;SDS011;65100;46.884;17.410;2024-01-30T08:57:24;34.33;;;13.57;;
76290;SDS011;65100;46.884;17.410;2024-01-30T08:59:53;31.17;;;13.30;;
76290;SDS011;65100;46.884;17.410;2024-01-30T09:02:19;31.80;;;13.90;;
76290;SDS011;65100;46.884;17.410;2024-01-30T09:04:44;33.07;;;13.60;;
76290;SDS011;65100;46.884;17.410;2024-01-30T09:07:10;25.77;;;11.52;;
76290;SDS011;65100;46.884;17.410;2024-01-30T09:09:37;32.13;;;13.90;;
76290;SDS011;65100;46.884;17.410;2024-01-30T09:12:04;27.92;;;11.45;;
76290;SDS011;65100;46.884;17.410;2024-01-30T09:14:32;32.17;;;12.60;;
76290;SDS011;65100;46.884;17.410;2024-01-30T09:16:57;25.10;;;11.13;;
76290;SDS011;65100;46.884;17.410;2024-01-30T09:19:23;28.27;;;10.88;;
76290;SDS011;65100;46.884;17.410;2024-01-30T09:21:48;27.07;;;11.93;;
76290;SDS011;65100;46.884;17.410;2024-01-30T09:24:14;23.07;;;9.97;;
76290;SDS011;65100;46.884;17.410;2024-01-30T09:26:39;26.57;;;11.27;;
76290;SDS011;65100;46.884;17.410;2024-01-30T09:29:04;27.90;;;12.57;;
76290;SDS011;65100;46.884;17.410;2024-01-30T09:31:30;23.90;;;10.27;;
76290;SDS011;65100;46.884;17.410;2024-01-30T09:33:55;25.80;;;9.90;;
76290;SDS011;65100;46.884;17.410;2024-01-30T09:36:21;21.87;;;10.30;;
76290;SDS011;65100;46.884;17.410;2024-01-30T09:38:47;22.85;;;9.32;;
76290;SDS011;65100;46.884;17.410;2024-01-30T09:41:12;22.93;;;9.33;;
76290;SDS011;65100;46.884;17.410;2024-01-30T09:43:38;26.95;;;10.80;;
76290;SDS011;65100;46.884;17.410;2024-01-30T09:46:07;24.75;;;10.15;;
76290;SDS011;65100;46.884;17.410;2024-01-30T09:48:36;26.07;;;11.60;;
76290;SDS011;65100;46.884;17.410;2024-01-30T09:51:02;23.50;;;10.30;;
76290;SDS011;65100;46.884;17.410;2024-01-30T09:53:28;24.90;;;10.60;;
76290;SDS011;65100;46.884;17.410;2024-01-30T09:55:54;25.63;;;10.60;;
76290;SDS011;65100;46.884;17.410;2024-01-30T09:58:20;24.17;;;10.82;;
76290;SDS011;65100;46.884;17.410;2024-01-30T10:00:45;26.50;;;12.13;;
76290;SDS011;65100;46.884;17.410;2024-01-30T10:06:18;26.98;;;11.65;;
76290;SDS011;65100;46.884;17.410;2024-01-30T10:08:45;27.90;;;10.00;;
76290;SDS011;65100;46.884;17.410;2024-01-30T10:11:11;24.33;;;10.52;;
76290;SDS011;65100;46.884;17.410;2024-01-30T10:13:38;26.10;;;10.70;;
76290;SDS011;65100;46.884;17.410;2024-01-30T10:16:04;27.05;;;12.13;;
76290;SDS011;65100;46.884;17.410;2024-01-30T10:18:31;26.90;;;11.10;;
76290;SDS011;65100;46.884;17.410;2024-01-30T10:20:57;27.73;;;10.97;;
76290;SDS011;65100;46.884;17.410;2024-01-30T10:23:23;25.83;;;10.50;;
76290;SDS011;65100;46.884;17.410;2024-01-30T10:25:50;29.17;;;12.18;;
76290;SDS011;65100;46.884;17.410;2024-01-30T10:28:16;24.50;;;10.37;;
76290;SDS011;65100;46.884;17.410;2024-01-30T10:30:42;24.55;;;10.52;;
76290;SDS011;65100;46.884;17.410;2024-01-30T10:33:07;24.80;;;9.77;;
76290;SDS011;65100;46.884;17.410;2024-01-30T10:35:33;24.43;;;10.30;;
76290;SDS011;65100;46.884;17.410;2024-01-30T10:37:59;27.00;;;11.50;;
76290;SDS011;65100;46.884;17.410;2024-01-30T10:40:27;24.87;;;11.33;;
76290;SDS011;65100;46.884;17.410;2024-01-30T10:42:53;28.02;;;11.10;;
76290;SDS011;65100;46.884;17.410;2024-01-30T10:45:21;26.58;;;11.38;;
76290;SDS011;65100;46.884;17.410;2024-01-30T10:47:50;27.52;;;11.20;;
76290;SDS011;65100;46.884;17.410;2024-01-30T10:50:18;25.92;;;11.70;;
76290;SDS011;65100;46.884;17.410;2024-01-30T10:52:44;24.20;;;10.17;;
76290;SDS011;65100;46.884;17.410;2024-01-30T10:55:11;25.48;;;9.85;;
76290;SDS011;65100;46.884;17.410;2024-01-30T10:57:39;30.95;;;12.82;;
76290;SDS011;65100;46.884;17.410;2024-01-30T11:00:05;25.15;;;10.43;;
76290;SDS011;65100;46.884;17.410;2024-01-30T11:02:39;29.53;;;11.87;;
76290;SDS011;65100;46.884;17.410;2024-01-30T11:05:07;27.08;;;10.82;;
76290;SDS011;65100;46.884;17.410;2024-01-30T11:07:33;27.95;;;11.65;;
76290;SDS011;65100;46.884;17.410;2024-01-30T11:10:00;28.30;;;11.80;;
76290;SDS011;65100;46.884;17.410;2024-01-30T11:12:26;24.30;;;10.20;;
76290;SDS011;65100;46.884;17.410;2024-01-30T11:15:05;26.85;;;12.10;;
76290;SDS011;65100;46.884;17.410;2024-01-30T11:17:50;26.45;;;11.30;;
76290;SDS011;65100;46.884;17.410;2024-01-30T11:20:26;24.65;;;11.35;;
76290;SDS011;65100;46.884;17.410;2024-01-30T11:22:56;29.77;;;11.40;;
76290;SDS011;65100;46.884;17.410;2024-01-30T11:25:22;25.50;;;11.32;;
76290;SDS011;65100;46.884;17.410;2024-01-30T11:27:49;24.55;;;11.38;;
76290;SDS011;65100;46.884;17.410;2024-01-30T11:30:31;24.33;;;9.88;;
76290;SDS011;65100;46.884;17.410;2024-01-30T11:33:00;24.38;;;11.15;;
76290;SDS011;65100;46.884;17.410;2024-01-30T11:35:29;24.50;;;9.93;;
76290;SDS011;65100;46.884;17.410;2024-01-30T11:37:57;25.52;;;11.48;;
76290;SDS011;65100;46.884;17.410;2024-01-30T11:40:24;24.77;;;10.25;;
76290;SDS011;65100;46.884;17.410;2024-01-30T11:42:55;24.27;;;10.65;;
76290;SDS011;65100;46.884;17.410;2024-01-30T11:45:24;25.60;;;11.35;;
76290;SDS011;65100;46.884;17.410;2024-01-30T11:47:51;25.70;;;11.57;;
76290;SDS011;65100;46.884;17.410;2024-01-30T11:50:17;25.52;;;11.35;;
76290;SDS011;65100;46.884;17.410;2024-01-30T11:52:43;24.30;;;11.35;;
76290;SDS011;65100;46.884;17.410;2024-01-30T11:55:09;26.83;;;11.63;;
76290;SDS011;65100;46.884;17.410;2024-01-30T11:57:35;24.30;;;11.25;;
76290;SDS011;65100;46.884;17.410;2024-01-30T12:00:02;28.00;;;12.02;;
76290;SDS011;65100;46.884;17.410;2024-01-30T12:02:38;23.93;;;10.67;;
76290;SDS011;65100;46.884;17.410;2024-01-30T12:05:05;26.98;;;10.65;;
76290;SDS011;65100;46.884;17.410;2024-01-30T12:07:30;29.50;;;11.30;;
76290;SDS011;65100;46.884;17.410;2024-01-30T12:09:56;26.30;;;11.65;;
76290;SDS011;65100;46.884;17.410;2024-01-30T12:12:25;28.57;;;11.50;;
76290;SDS011;65100;46.884;17.410;2024-01-30T12:14:51;28.45;;;10.77;;
76290;SDS011;65100;46.884;17.410;2024-01-30T12:17:51;26.92;;;12.05;;
76290;SDS011;65100;46.884;17.410;2024-01-30T12:20:10;26.47;;;10.43;;
76290;SDS011;65100;46.884;17.410;2024-01-30T12:22:37;27.00;;;11.23;;
76290;SDS011;65100;46.884;17.410;2024-01-30T12:25:16;27.02;;;11.82;;
76290;SDS011;65100;46.884;17.410;2024-01-30T12:27:44;25.65;;;11.43;;
76290;SDS011;65100;46.884;17.410;2024-01-30T12:30:14;26.80;;;11.43;;
76290;SDS011;65100;46.884;17.410;2024-01-30T12:32:40;24.67;;;11.57;;
76290;SDS011;65100;46.884;17.410;2024-01-30T12:35:09;24.50;;;11.20;;
76290;SDS011;65100;46.884;17.410;2024-01-30T12:37:38;25.73;;;11.93;;
76290;SDS011;65100;46.884;17.410;2024-01-30T12:40:04;28.60;;;11.63;;
76290;SDS011;65100;46.884;17.410;2024-01-30T12:42:34;27.33;;;12.15;;
76290;SDS011;65100;46.884;17.410;2024-01-30T12:45:00;26.17;;;11.57;;
76290;SDS011;65100;46.884;17.410;2024-01-30T12:47:26;26.90;;;11.73;;
76290;SDS011;65100;46.884;17.410;2024-01-30T12:49:52;23.63;;;10.30;;
76290;SDS011;65100;46.884;17.410;2024-01-30T12:52:20;25.45;;;12.10;;
76290;SDS011;65100;46.884;17.410;2024-01-30T12:54:47;26.15;;;11.20;;
76290;SDS011;65100;46.884;17.410;2024-01-30T12:57:13;25.65;;;10.32;;
76290;SDS011;65100;46.884;17.410;2024-01-30T12:59:38;24.33;;;10.27;;
76290;SDS011;65100;46.884;17.410;2024-01-30T13:02:04;25.60;;;9.48;;
76290;SDS011;65100;46.884;17.410;2024-01-30T13:04:30;28.47;;;11.53;;
76290;SDS011;65100;46.884;17.410;2024-01-30T13:06:55;31.52;;;11.90;;
76290;SDS011;65100;46.884;17.410;2024-01-30T13:09:22;24.00;;;9.47;;
76290;SDS011;65100;46.884;17.410;2024-01-30T13:11:47;18.92;;;9.40;;
76290;SDS011;65100;46.884;17.410;2024-01-30T13:14:14;22.45;;;9.80;;
76290;SDS011;65100;46.884;17.410;2024-01-30T13:16:39;25.97;;;10.30;;
76290;SDS011;65100;46.884;17.410;2024-01-30T13:19:05;25.13;;;11.00;;
76290;SDS011;65100;46.884;17.410;2024-01-30T13:21:31;18.10;;;8.60;;
76290;SDS011;65100;46.884;17.410;2024-01-30T13:23:56;22.23;;;9.30;;
76290;SDS011;65100;46.884;17.410;2024-01-30T13:26:22;23.07;;;8.63;;
76290;SDS011;65100;46.884;17.410;2024-01-30T13:28:47;20.93;;;7.93;;
76290;SDS011;65100;46.884;17.410;2024-01-30T13:31:13;19.77;;;8.38;;
76290;SDS011;65100;46.884;17.410;2024-01-30T13:33:40;17.53;;;8.00;;
76290;SDS011;65100;46.884;17.410;2024-01-30T13:36:06;20.33;;;7.72;;
76290;SDS011;65100;46.884;17.410;2024-01-30T13:38:35;20.98;;;8.85;;
76290;SDS011;65100;46.884;17.410;2024-01-30T13:41:01;20.40;;;8.47;;
76290;SDS011;65100;46.884;17.410;2024-01-30T13:43:27;18.60;;;7.43;;
76290;SDS011;65100;46.884;17.410;2024-01-30T13:45:53;19.60;;;8.48;;
76290;SDS011;65100;46.884;17.410;2024-01-30T13:48:19;19.90;;;8.53;;
76290;SDS011;65100;46.884;17.410;2024-01-30T13:50:44;19.52;;;8.20;;
76290;SDS011;65100;46.884;17.410;2024-01-30T13:53:10;19.53;;;7.63;;
76290;SDS011;65100;46.884;17.410;2024-01-30T13:55:36;20.90;;;8.75;;
76290;SDS011;65100;46.884;17.410;2024-01-30T13:58:03;20.77;;;8.93;;
76290;SDS011;65100;46.884;17.410;2024-01-30T14:00:28;20.00;;;8.73;;
76290;SDS011;65100;46.884;17.410;2024-01-30T14:02:54;18.27;;;8.70;;
76290;SDS011;65100;46.884;17.410;2024-01-30T14:05:26;19.67;;;8.82;;
76290;SDS011;65100;46.884;17.410;2024-01-30T14:07:53;19.80;;;8.32;;
76290;SDS011;65100;46.884;17.410;2024-01-30T14:10:19;21.58;;;9.77;;
76290;SDS011;65100;46.884;17.410;2024-01-30T14:12:45;22.98;;;9.05;;
76290;SDS011;65100;46.884;17.410;2024-01-30T14:15:10;18.10;;;8.37;;